Terminal Aerodrome Forecast
Issued by NWS Columbia, SC

Home | Current Version | Previous Version | Text Only | Print | Product List | Glossary On
Versions: 1 2 3 4 5 6 7 8 9 10 11 12 13 14 15 16 17 18 19 20 21 22 23 24 25 26 27 28 29
000
FTUS42 KCAE 220200 AAA
TAFCAE
TAF AMD
KCAE 220240Z 2203/2224 23006KT P6SM BKN120
     FM220800 VRB05KT P6SM BKN045 BKN100
     FM221400 01007KT P6SM BKN045 BKN080
     FM222100 04006KT P6SM SCT040 BKN100=

USA.gov is the U.S. government's official web portal to all federal, state and local government web resources and services.